Beland, Oklahoma
Current Conditions -  °F | °C
As of 6:53 PM on Friday 28 Nov 2014 (Local Time) from KMKO Reporting Station
Clear Clear  
Wind Chill: 11°   Ceiling: Unl
Heat Index: 11°   Visibility: 10mi
Dew Point:   Wind: 7mph
Humidity: 69%   Direction: 170°S
Pressure: 29.96"   Gusts: NA
Location:  35.6818°N, 95.3578°W
Report Text: KMKO 290053Z AUTO 17006KT 10SM CLR 11/06 A2996 RMK AO2 SLP145 T01110056
Loading
Personal Weather Stations






























Interactive Weather Map New forecast layout! Learn more

10-Day Weather Forecast

Advertisements
Track Severe Weather on mobile